Station History

Weather Underground - logo

Station Historical Data
Daily Summary for February 7, 2018 Units:  Both    English   Metric
« Previous Day
Next Day »
Daily Weekly Monthly Yearly Custom
  High: Low: Average:
Temperature: 76.5 °F /  24.7 °C 43.7 °F /  6.5 °C 58.6 °F /  14.8 °C
Dew Point: 54.2 °F /  12.3 °C 41.8 °F /  5.4 °C 47.7 °F /  8.7 °C
Humidity: 95 % 30 % 71 %
Wind Speed: 4.6 mph /  7.4 km/h - 0.5 mph /  0.8 km/h
Wind Gust: 4.6 mph /  7.4 km/h - -
Wind:- - West
Pressure: 30.27 in /  1024.9 hPa 30.17 in /  1021.6 hPa -
Precipitation: 0.00 in /  0 mm    
Historical Graphs
 
 
Tabular Data for February 7, 2018
Time Temperature Dew Point Pressure Wind Wind Speed Wind Gust Humidity Rainfall Rate (Hourly)
00:02 50.0 °F /  10 °C 46.9 °F /  8.3 °C 30.18 in /  1021.9 hPa Calm     89 % 0.00 in /  0 mm
00:07 49.8 °F /  9.9 °C 46.7 °F /  8.2 °C 30.18 in /  1021.9 hPa Calm     89 % 0.00 in /  0 mm
00:12 49.6 °F /  9.8 °C 46.8 °F /  8.2 °C 30.18 in /  1021.9 hPa Calm     90 % 0.00 in /  0 mm
00:17 49.7 °F /  9.8 °C 46.9 °F /  8.3 °C 30.18 in /  1021.9 hPa Calm     90 % 0.00 in /  0 mm
00:22 49.5 °F /  9.7 °C 46.7 °F /  8.2 °C 30.18 in /  1021.9 hPa Calm     90 % 0.00 in /  0 mm
00:27 49.2 °F /  9.6 °C 46.1 °F /  7.8 °C 30.19 in /  1022.2 hPa Calm     89 % 0.00 in /  0 mm
00:32 48.8 °F /  9.3 °C 45.7 °F /  7.6 °C 30.19 in /  1022.2 hPa Calm     89 % 0.00 in /  0 mm
00:37 48.5 °F /  9.2 °C 45.4 °F /  7.4 °C 30.19 in /  1022.2 hPa Calm     89 % 0.00 in /  0 mm
00:42 48.5 °F /  9.2 °C 45.7 °F /  7.6 °C 30.19 in /  1022.2 hPa Calm     90 % 0.00 in /  0 mm
00:47 48.4 °F /  9.1 °C 45.6 °F /  7.6 °C 30.19 in /  1022.2 hPa Calm     90 % 0.00 in /  0 mm
00:52 48.4 °F /  9.1 °C 45.6 °F /  7.6 °C 30.19 in /  1022.2 hPa Calm     90 % 0.00 in /  0 mm
00:57 48.3 °F /  9.1 °C 45.5 °F /  7.5 °C 30.19 in /  1022.2 hPa Calm     90 % 0.00 in /  0 mm
01:02 48.2 °F /  9 °C 45.4 °F /  7.4 °C 30.19 in /  1022.2 hPa Calm     90 % 0.00 in /  0 mm
01:07 48.1 °F /  8.9 °C 45.6 °F /  7.6 °C 30.19 in /  1022.2 hPa Calm     91 % 0.00 in /  0 mm
01:12 48.0 °F /  8.9 °C 45.5 °F /  7.5 °C 30.19 in /  1022.2 hPa Calm     91 % 0.00 in /  0 mm
01:17 47.9 °F /  8.8 °C 45.4 °F /  7.4 °C 30.19 in /  1022.2 hPa Calm     91 % 0.00 in /  0 mm
01:22 47.8 °F /  8.8 °C 45.3 °F /  7.4 °C 30.20 in /  1022.6 hPa Calm     91 % 0.00 in /  0 mm
01:27 47.7 °F /  8.7 °C 45.2 °F /  7.3 °C 30.19 in /  1022.2 hPa Calm     91 % 0.00 in /  0 mm
01:32 47.7 °F /  8.7 °C 45.5 °F /  7.5 °C 30.20 in /  1022.6 hPa Calm     92 % 0.00 in /  0 mm
01:37 47.6 °F /  8.7 °C 45.4 °F /  7.4 °C 30.20 in /  1022.6 hPa Calm     92 % 0.00 in /  0 mm
01:42 47.9 °F /  8.8 °C 45.7 °F /  7.6 °C 30.20 in /  1022.6 hPa Calm     92 % 0.00 in /  0 mm
01:47 48.4 °F /  9.1 °C 46.5 °F /  8.1 °C 30.19 in /  1022.2 hPa Calm     93 % 0.00 in /  0 mm
01:52 48.7 °F /  9.3 °C 46.8 °F /  8.2 °C 30.19 in /  1022.2 hPa Calm     93 % 0.00 in /  0 mm
01:57 48.8 °F /  9.3 °C 46.6 °F /  8.1 °C 30.19 in /  1022.2 hPa Calm     92 % 0.00 in /  0 mm
02:02 48.3 °F /  9.1 °C 45.5 °F /  7.5 °C 30.19 in /  1022.2 hPa Calm     90 % 0.00 in /  0 mm
02:07 47.8 °F /  8.8 °C 45.0 °F /  7.2 °C 30.20 in /  1022.6 hPa Calm     90 % 0.00 in /  0 mm
02:12 47.6 °F /  8.7 °C 45.1 °F /  7.3 °C 30.20 in /  1022.6 hPa Calm     91 % 0.00 in /  0 mm
02:17 47.5 °F /  8.6 °C 45.0 °F /  7.2 °C 30.20 in /  1022.6 hPa Calm     91 % 0.00 in /  0 mm
02:22 47.5 °F /  8.6 °C 45.3 °F /  7.4 °C 30.20 in /  1022.6 hPa Calm     92 % 0.00 in /  0 mm
02:27 47.6 °F /  8.7 °C 45.4 °F /  7.4 °C 30.20 in /  1022.6 hPa Calm     92 % 0.00 in /  0 mm
02:32 47.7 °F /  8.7 °C 45.5 °F /  7.5 °C 30.20 in /  1022.6 hPa Calm     92 % 0.00 in /  0 mm
02:37 47.3 °F /  8.5 °C 44.8 °F /  7.1 °C 30.20 in /  1022.6 hPa Calm     91 % 0.00 in /  0 mm
02:42 46.9 °F /  8.3 °C 44.4 °F /  6.9 °C 30.20 in /  1022.6 hPa Calm     91 % 0.00 in /  0 mm
02:47 46.6 °F /  8.1 °C 44.1 °F /  6.7 °C 30.20 in /  1022.6 hPa Calm     91 % 0.00 in /  0 mm
02:52 46.4 °F /  8 °C 43.9 °F /  6.6 °C 30.20 in /  1022.6 hPa Calm     91 % 0.00 in /  0 mm
02:57 46.0 °F /  7.8 °C 43.5 °F /  6.4 °C 30.20 in /  1022.6 hPa Calm     91 % 0.00 in /  0 mm
03:02 45.8 °F /  7.7 °C 43.3 °F /  6.3 °C 30.20 in /  1022.6 hPa Calm     91 % 0.00 in /  0 mm
03:07 45.6 °F /  7.6 °C 43.1 °F /  6.2 °C 30.20 in /  1022.6 hPa Calm     91 % 0.00 in /  0 mm
03:12 45.5 °F /  7.5 °C 43.3 °F /  6.3 °C 30.20 in /  1022.6 hPa Calm     92 % 0.00 in /  0 mm
03:17 45.6 °F /  7.6 °C 43.4 °F /  6.3 °C 30.20 in /  1022.6 hPa Calm     92 % 0.00 in /  0 mm
03:22 45.6 °F /  7.6 °C 43.7 °F /  6.5 °C 30.20 in /  1022.6 hPa Calm     93 % 0.00 in /  0 mm
03:27 45.6 °F /  7.6 °C 43.4 °F /  6.3 °C 30.20 in /  1022.6 hPa Calm     92 % 0.00 in /  0 mm
03:32 45.4 °F /  7.4 °C 43.2 °F /  6.2 °C 30.20 in /  1022.6 hPa Calm     92 % 0.00 in /  0 mm
03:37 45.0 °F /  7.2 °C 42.8 °F /  6 °C 30.20 in /  1022.6 hPa Calm     92 % 0.00 in /  0 mm
03:42 44.8 °F /  7.1 °C 42.6 °F /  5.9 °C 30.20 in /  1022.6 hPa Calm     92 % 0.00 in /  0 mm
03:47 44.8 °F /  7.1 °C 42.9 °F /  6.1 °C 30.20 in /  1022.6 hPa Calm     93 % 0.00 in /  0 mm
03:53 45.0 °F /  7.2 °C 43.1 °F /  6.2 °C 30.20 in /  1022.6 hPa Calm     93 % 0.00 in /  0 mm
03:58 45.0 °F /  7.2 °C 43.1 °F /  6.2 °C 30.20 in /  1022.6 hPa Calm     93 % 0.00 in /  0 mm
04:03 45.0 °F /  7.2 °C 43.1 °F /  6.2 °C 30.20 in /  1022.6 hPa Calm     93 % 0.00 in /  0 mm
04:08 45.0 °F /  7.2 °C 43.1 °F /  6.2 °C 30.20 in /  1022.6 hPa Calm     93 % 0.00 in /  0 mm
04:13 44.9 °F /  7.2 °C 43.0 °F /  6.1 °C 30.20 in /  1022.6 hPa Calm     93 % 0.00 in /  0 mm
04:18 44.7 °F /  7.1 °C 42.8 °F /  6 °C 30.20 in /  1022.6 hPa Calm     93 % 0.00 in /  0 mm
04:23 44.6 °F /  7 °C 42.7 °F /  5.9 °C 30.20 in /  1022.6 hPa Calm     93 % 0.00 in /  0 mm
04:28 44.6 °F /  7 °C 42.7 °F /  5.9 °C 30.20 in /  1022.6 hPa Calm     93 % 0.00 in /  0 mm
04:33 44.6 °F /  7 °C 42.7 °F /  5.9 °C 30.20 in /  1022.6 hPa Calm     93 % 0.00 in /  0 mm
04:38 44.6 °F /  7 °C 42.7 °F /  5.9 °C 30.21 in /  1022.9 hPa Calm     93 % 0.00 in /  0 mm
04:43 44.7 °F /  7.1 °C 43.1 °F /  6.2 °C 30.21 in /  1022.9 hPa Calm     94 % 0.00 in /  0 mm
04:48 44.6 °F /  7 °C 42.7 °F /  5.9 °C 30.21 in /  1022.9 hPa Calm     93 % 0.00 in /  0 mm
04:53 44.6 °F /  7 °C 42.7 °F /  5.9 °C 30.21 in /  1022.9 hPa Calm     93 % 0.00 in /  0 mm
04:58 44.5 °F /  6.9 °C 42.6 °F /  5.9 °C 30.21 in /  1022.9 hPa Calm     93 % 0.00 in /  0 mm
05:03 44.5 °F /  6.9 °C 42.6 °F /  5.9 °C 30.21 in /  1022.9 hPa Calm     93 % 0.00 in /  0 mm
05:08 44.5 °F /  6.9 °C 42.6 °F /  5.9 °C 30.21 in /  1022.9 hPa Calm     93 % 0.00 in /  0 mm
05:13 44.3 °F /  6.8 °C 42.4 °F /  5.8 °C 30.21 in /  1022.9 hPa Calm     93 % 0.00 in /  0 mm
05:18 44.1 °F /  6.7 °C 42.2 °F /  5.7 °C 30.22 in /  1023.2 hPa Calm     93 % 0.00 in /  0 mm
05:23 44.1 °F /  6.7 °C 42.2 °F /  5.7 °C 30.22 in /  1023.2 hPa Calm     93 % 0.00 in /  0 mm
05:28 44.0 °F /  6.7 °C 42.1 °F /  5.6 °C 30.22 in /  1023.2 hPa Calm     93 % 0.00 in /  0 mm
05:33 43.8 °F /  6.6 °C 41.9 °F /  5.5 °C 30.22 in /  1023.2 hPa Calm     93 % 0.00 in /  0 mm
05:38 43.7 °F /  6.5 °C 41.8 °F /  5.4 °C 30.23 in /  1023.6 hPa Calm     93 % 0.00 in /  0 mm
05:43 43.9 °F /  6.6 °C 42.3 °F /  5.7 °C 30.23 in /  1023.6 hPa Calm     94 % 0.00 in /  0 mm
05:48 44.4 °F /  6.9 °C 42.8 °F /  6 °C 30.23 in /  1023.6 hPa NNE 1.2 mph /  1.9 km/h   94 % 0.00 in /  0 mm
05:53 44.7 °F /  7.1 °C 43.1 °F /  6.2 °C 30.23 in /  1023.6 hPa Calm     94 % 0.00 in /  0 mm
05:58 44.8 °F /  7.1 °C 43.2 °F /  6.2 °C 30.23 in /  1023.6 hPa Calm     94 % 0.00 in /  0 mm
06:03 44.9 °F /  7.2 °C 43.3 °F /  6.3 °C 30.23 in /  1023.6 hPa Calm     94 % 0.00 in /  0 mm
06:08 44.8 °F /  7.1 °C 43.2 °F /  6.2 °C 30.23 in /  1023.6 hPa Calm     94 % 0.00 in /  0 mm
06:13 45.0 °F /  7.2 °C 43.7 °F /  6.5 °C 30.23 in /  1023.6 hPa Calm     95 % 0.00 in /  0 mm
06:18 44.9 °F /  7.2 °C 43.3 °F /  6.3 °C 30.23 in /  1023.6 hPa Calm     94 % 0.00 in /  0 mm
06:23 45.1 °F /  7.3 °C 43.8 °F /  6.6 °C 30.24 in /  1023.9 hPa Calm     95 % 0.00 in /  0 mm
06:28 45.4 °F /  7.4 °C 44.1 °F /  6.7 °C 30.24 in /  1023.9 hPa Calm     95 % 0.00 in /  0 mm
06:33 45.6 °F /  7.6 °C 44.3 °F /  6.8 °C 30.24 in /  1023.9 hPa Calm     95 % 0.00 in /  0 mm
06:38 45.7 °F /  7.6 °C 44.4 °F /  6.9 °C 30.24 in /  1023.9 hPa Calm     95 % 0.00 in /  0 mm
06:43 45.8 °F /  7.7 °C 44.4 °F /  6.9 °C 30.24 in /  1023.9 hPa Calm     95 % 0.00 in /  0 mm
06:48 45.6 °F /  7.6 °C 44.0 °F /  6.7 °C 30.24 in /  1023.9 hPa Calm     94 % 0.00 in /  0 mm
06:53 45.5 °F /  7.5 °C 43.9 °F /  6.6 °C 30.24 in /  1023.9 hPa Calm     94 % 0.00 in /  0 mm
06:58 45.4 °F /  7.4 °C 43.8 °F /  6.6 °C 30.25 in /  1024.3 hPa Calm     94 % 0.00 in /  0 mm
07:03 45.3 °F /  7.4 °C 43.7 °F /  6.5 °C 30.25 in /  1024.3 hPa Calm     94 % 0.00 in /  0 mm
07:08 45.3 °F /  7.4 °C 44.0 °F /  6.7 °C 30.24 in /  1023.9 hPa Calm     95 % 0.00 in /  0 mm
07:13 45.4 °F /  7.4 °C 44.1 °F /  6.7 °C 30.25 in /  1024.3 hPa Calm     95 % 0.00 in /  0 mm
07:18 45.3 °F /  7.4 °C 44.0 °F /  6.7 °C 30.24 in /  1023.9 hPa Calm     95 % 0.00 in /  0 mm
07:23 45.4 °F /  7.4 °C 44.1 °F /  6.7 °C 30.24 in /  1023.9 hPa Calm     95 % 0.00 in /  0 mm
07:28 45.5 °F /  7.5 °C 44.2 °F /  6.8 °C 30.25 in /  1024.3 hPa Calm     95 % 0.00 in /  0 mm
07:33 45.5 °F /  7.5 °C 44.2 °F /  6.8 °C 30.25 in /  1024.3 hPa Calm     95 % 0.00 in /  0 mm
07:38 45.4 °F /  7.4 °C 44.1 °F /  6.7 °C 30.25 in /  1024.3 hPa Calm     95 % 0.00 in /  0 mm
07:43 45.5 °F /  7.5 °C 44.2 °F /  6.8 °C 30.25 in /  1024.3 hPa Calm     95 % 0.00 in /  0 mm
07:48 45.9 °F /  7.7 °C 44.5 °F /  6.9 °C 30.25 in /  1024.3 hPa Calm     95 % 0.00 in /  0 mm
07:53 46.7 °F /  8.2 °C 45.3 °F /  7.4 °C 30.25 in /  1024.3 hPa Calm     95 % 0.00 in /  0 mm
07:58 47.3 °F /  8.5 °C 45.9 °F /  7.7 °C 30.25 in /  1024.3 hPa Calm     95 % 0.00 in /  0 mm
08:03 47.7 °F /  8.7 °C 46.3 °F /  7.9 °C 30.25 in /  1024.3 hPa Calm     95 % 0.00 in /  0 mm
08:08 48.5 °F /  9.2 °C 46.9 °F /  8.3 °C 30.25 in /  1024.3 hPa Calm     94 % 0.00 in /  0 mm
08:13 49.6 °F /  9.8 °C 47.9 °F /  8.8 °C 30.25 in /  1024.3 hPa Calm     94 % 0.00 in /  0 mm
08:18 51.4 °F /  10.8 °C 49.4 °F /  9.7 °C 30.25 in /  1024.3 hPa Calm     93 % 0.00 in /  0 mm
08:23 53.1 °F /  11.7 °C 50.2 °F /  10.1 °C 30.25 in /  1024.3 hPa Calm     90 % 0.00 in /  0 mm
08:28 54.3 °F /  12.4 °C 50.5 °F /  10.3 °C 30.26 in /  1024.6 hPa Calm     87 % 0.00 in /  0 mm
08:33 55.3 °F /  12.9 °C 50.9 °F /  10.5 °C 30.26 in /  1024.6 hPa Calm     85 % 0.00 in /  0 mm
08:38 56.0 °F /  13.3 °C 51.6 °F /  10.9 °C 30.26 in /  1024.6 hPa Calm     85 % 0.00 in /  0 mm
08:43 57.0 °F /  13.9 °C 51.6 °F /  10.9 °C 30.26 in /  1024.6 hPa Calm     82 % 0.00 in /  0 mm
08:48 57.5 °F /  14.2 °C 51.7 °F /  10.9 °C 30.26 in /  1024.6 hPa Calm     81 % 0.00 in /  0 mm
08:53 58.2 °F /  14.6 °C 52.1 °F /  11.2 °C 30.26 in /  1024.6 hPa Calm     80 % 0.00 in /  0 mm
08:58 58.7 °F /  14.8 °C 51.9 °F /  11.1 °C 30.26 in /  1024.6 hPa Calm     78 % 0.00 in /  0 mm
09:03 59.8 °F /  15.4 °C 52.2 °F /  11.2 °C 30.26 in /  1024.6 hPa Calm     76 % 0.00 in /  0 mm
09:08 60.9 °F /  16.1 °C 52.6 °F /  11.4 °C 30.27 in /  1024.9 hPa SE 1.2 mph /  1.9 km/h   74 % 0.00 in /  0 mm
09:13 61.4 °F /  16.3 °C 52.7 °F /  11.5 °C 30.26 in /  1024.6 hPa Calm     73 % 0.00 in /  0 mm
09:18 61.6 °F /  16.4 °C 52.9 °F /  11.6 °C 30.27 in /  1024.9 hPa Calm     73 % 0.00 in /  0 mm
09:23 62.4 °F /  16.9 °C 53.3 °F /  11.8 °C 30.27 in /  1024.9 hPa ESE 1.2 mph /  1.9 km/h   72 % 0.00 in /  0 mm
09:28 62.7 °F /  17.1 °C 52.4 °F /  11.3 °C 30.26 in /  1024.6 hPa Calm     69 % 0.00 in /  0 mm
09:33 63.0 °F /  17.2 °C 53.1 °F /  11.7 °C 30.26 in /  1024.6 hPa SE 1.2 mph /  1.9 km/h   70 % 0.00 in /  0 mm
09:38 63.4 °F /  17.4 °C 52.7 °F /  11.5 °C 30.26 in /  1024.6 hPa ESE 1.2 mph /  1.9 km/h   68 % 0.00 in /  0 mm
09:43 64.0 °F /  17.8 °C 53.2 °F /  11.8 °C 30.26 in /  1024.6 hPa Calm     68 % 0.00 in /  0 mm
09:48 64.5 °F /  18.1 °C 52.9 °F /  11.6 °C 30.26 in /  1024.6 hPa Calm     66 % 0.00 in /  0 mm
09:53 64.8 °F /  18.2 °C 52.8 °F /  11.6 °C 30.26 in /  1024.6 hPa Calm     65 % 0.00 in /  0 mm
09:58 65.0 °F /  18.3 °C 53.4 °F /  11.9 °C 30.26 in /  1024.6 hPa Calm     66 % 0.00 in /  0 mm
09:59 65.1 °F /  18.4 °C 53.5 °F /  11.9 °C 30.26 in /  1024.6 hPa Calm     66 % 0.00 in /  0 mm
10:04 65.7 °F /  18.7 °C 53.6 °F /  12 °C 30.26 in /  1024.6 hPa Calm     65 % 0.00 in /  0 mm
10:09 66.1 °F /  18.9 °C 53.1 °F /  11.7 °C 30.26 in /  1024.6 hPa Calm     63 % 0.00 in /  0 mm
10:14 66.0 °F /  18.9 °C 53.5 °F /  11.9 °C 30.26 in /  1024.6 hPa Calm     64 % 0.00 in /  0 mm
10:19 66.3 °F /  19.1 °C 53.3 °F /  11.8 °C 30.26 in /  1024.6 hPa Calm     63 % 0.00 in /  0 mm
10:24 66.9 °F /  19.4 °C 53.5 °F /  11.9 °C 30.26 in /  1024.6 hPa Calm     62 % 0.00 in /  0 mm
10:29 66.9 °F /  19.4 °C 53.0 °F /  11.7 °C 30.26 in /  1024.6 hPa Calm     61 % 0.00 in /  0 mm
10:34 67.3 °F /  19.6 °C 53.8 °F /  12.1 °C 30.26 in /  1024.6 hPa Calm     62 % 0.00 in /  0 mm
10:39 67.8 °F /  19.9 °C 53.9 °F /  12.2 °C 30.26 in /  1024.6 hPa NW 1.0 mph /  1.6 km/h   61 % 0.00 in /  0 mm
10:44 67.7 °F /  19.8 °C 53.3 °F /  11.8 °C 30.26 in /  1024.6 hPa Calm     60 % 0.00 in /  0 mm
10:49 67.8 °F /  19.9 °C 53.9 °F /  12.2 °C 30.26 in /  1024.6 hPa East 1.2 mph /  1.9 km/h 1.2 mph /  1.9 km/h 61 % 0.00 in /  0 mm
10:54 67.9 °F /  19.9 °C 53.0 °F /  11.7 °C 30.26 in /  1024.6 hPa WNW 1.2 mph /  1.9 km/h 1.2 mph /  1.9 km/h 59 % 0.00 in /  0 mm
10:59 68.1 °F /  20.1 °C 52.8 °F /  11.6 °C 30.26 in /  1024.6 hPa ENE 1.2 mph /  1.9 km/h   58 % 0.00 in /  0 mm
11:04 68.7 °F /  20.4 °C 53.8 °F /  12.1 °C 30.26 in /  1024.6 hPa Calm     59 % 0.00 in /  0 mm
11:09 69.3 °F /  20.7 °C 53.4 °F /  11.9 °C 30.26 in /  1024.6 hPa Calm     57 % 0.00 in /  0 mm
11:14 69.5 °F /  20.8 °C 52.6 °F /  11.4 °C 30.25 in /  1024.3 hPa NW 1.2 mph /  1.9 km/h 1.2 mph /  1.9 km/h 55 % 0.00 in /  0 mm
11:19 70.0 °F /  21.1 °C 52.6 °F /  11.4 °C 30.25 in /  1024.3 hPa East 1.2 mph /  1.9 km/h 1.2 mph /  1.9 km/h 54 % 0.00 in /  0 mm
11:24 70.4 °F /  21.3 °C 53.5 °F /  11.9 °C 30.25 in /  1024.3 hPa Calm     55 % 0.00 in /  0 mm
11:29 70.5 °F /  21.4 °C 51.5 °F /  10.8 °C 30.25 in /  1024.3 hPa NW 1.2 mph /  1.9 km/h   51 % 0.00 in /  0 mm
11:34 70.4 °F /  21.3 °C 52.4 °F /  11.3 °C 30.25 in /  1024.3 hPa Calm     53 % 0.00 in /  0 mm
11:39 70.8 °F /  21.6 °C 53.8 °F /  12.1 °C 30.25 in /  1024.3 hPa Calm     55 % 0.00 in /  0 mm
11:44 71.2 °F /  21.8 °C 54.2 °F /  12.3 °C 30.25 in /  1024.3 hPa SE 1.2 mph /  1.9 km/h   55 % 0.00 in /  0 mm
11:49 71.6 °F /  22 °C 53.0 °F /  11.7 °C 30.25 in /  1024.3 hPa NW 1.2 mph /  1.9 km/h 1.2 mph /  1.9 km/h 52 % 0.00 in /  0 mm
11:54 71.4 °F /  21.9 °C 53.4 °F /  11.9 °C 30.24 in /  1023.9 hPa Calm     53 % 0.00 in /  0 mm
11:59 72.0 °F /  22.2 °C 52.3 °F /  11.3 °C 30.24 in /  1023.9 hPa NNW 1.2 mph /  1.9 km/h 1.2 mph /  1.9 km/h 50 % 0.00 in /  0 mm
12:04 72.1 °F /  22.3 °C 52.4 °F /  11.3 °C 30.24 in /  1023.9 hPa NW 1.2 mph /  1.9 km/h 1.2 mph /  1.9 km/h 50 % 0.00 in /  0 mm
12:09 72.0 °F /  22.2 °C 52.9 °F /  11.6 °C 30.24 in /  1023.9 hPa WNW 2.3 mph /  3.7 km/h 2.3 mph /  3.7 km/h 51 % 0.00 in /  0 mm
12:14 72.0 °F /  22.2 °C 52.9 °F /  11.6 °C 30.23 in /  1023.6 hPa WNW 2.0 mph /  3.2 km/h 2.0 mph /  3.2 km/h 51 % 0.00 in /  0 mm
12:19 72.1 °F /  22.3 °C 53.0 °F /  11.7 °C 30.23 in /  1023.6 hPa WNW 1.2 mph /  1.9 km/h 1.2 mph /  1.9 km/h 51 % 0.00 in /  0 mm
12:24 72.2 °F /  22.3 °C 52.5 °F /  11.4 °C 30.23 in /  1023.6 hPa NNW 1.2 mph /  1.9 km/h 1.2 mph /  1.9 km/h 50 % 0.00 in /  0 mm
12:29 72.8 °F /  22.7 °C 52.5 °F /  11.4 °C 30.23 in /  1023.6 hPa Calm     49 % 0.00 in /  0 mm
12:34 73.2 °F /  22.9 °C 52.3 °F /  11.3 °C 30.22 in /  1023.2 hPa NNE 2.3 mph /  3.7 km/h 2.3 mph /  3.7 km/h 48 % 0.00 in /  0 mm
12:39 73.2 °F /  22.9 °C 52.3 °F /  11.3 °C 30.22 in /  1023.2 hPa NW 2.3 mph /  3.7 km/h 2.3 mph /  3.7 km/h 48 % 0.00 in /  0 mm
12:45 73.0 °F /  22.8 °C 52.7 °F /  11.5 °C 30.22 in /  1023.2 hPa Calm     49 % 0.00 in /  0 mm
12:50 73.3 °F /  22.9 °C 51.8 °F /  11 °C 30.22 in /  1023.2 hPa Calm     47 % 0.00 in /  0 mm
12:55 73.8 °F /  23.2 °C 52.3 °F /  11.3 °C 30.21 in /  1022.9 hPa North 3.5 mph /  5.6 km/h 3.5 mph /  5.6 km/h 47 % 0.00 in /  0 mm
13:00 74.0 °F /  23.3 °C 53.1 °F /  11.7 °C 30.21 in /  1022.9 hPa WNW 1.2 mph /  1.9 km/h 1.2 mph /  1.9 km/h 48 % 0.00 in /  0 mm
13:05 74.2 °F /  23.4 °C 52.7 °F /  11.5 °C 30.21 in /  1022.9 hPa NW 1.2 mph /  1.9 km/h 1.2 mph /  1.9 km/h 47 % 0.00 in /  0 mm
13:10 74.6 °F /  23.7 °C 52.4 °F /  11.3 °C 30.21 in /  1022.9 hPa NW 1.2 mph /  1.9 km/h   46 % 0.00 in /  0 mm
13:15 74.8 °F /  23.8 °C 51.4 °F /  10.8 °C 30.20 in /  1022.6 hPa NW 3.5 mph /  5.6 km/h 3.5 mph /  5.6 km/h 44 % 0.00 in /  0 mm
13:20 74.6 °F /  23.7 °C 51.9 °F /  11.1 °C 30.20 in /  1022.6 hPa NW 1.2 mph /  1.9 km/h 1.2 mph /  1.9 km/h 45 % 0.00 in /  0 mm
13:25 74.8 °F /  23.8 °C 50.8 °F /  10.4 °C 30.20 in /  1022.6 hPa NW 1.2 mph /  1.9 km/h   43 % 0.00 in /  0 mm
13:30 74.7 °F /  23.7 °C 51.3 °F /  10.7 °C 30.20 in /  1022.6 hPa Calm     44 % 0.00 in /  0 mm
13:35 75.3 °F /  24.1 °C 52.5 °F /  11.4 °C 30.20 in /  1022.6 hPa Calm     45 % 0.00 in /  0 mm
13:40 75.6 °F /  24.2 °C 51.5 °F /  10.8 °C 30.20 in /  1022.6 hPa NNW 1.2 mph /  1.9 km/h 1.2 mph /  1.9 km/h 43 % 0.00 in /  0 mm
13:45 75.9 °F /  24.4 °C 51.8 °F /  11 °C 30.19 in /  1022.2 hPa NW 3.0 mph /  4.8 km/h 3.0 mph /  4.8 km/h 43 % 0.00 in /  0 mm
13:50 75.9 °F /  24.4 °C 51.2 °F /  10.7 °C 30.19 in /  1022.2 hPa WSW 3.5 mph /  5.6 km/h 3.5 mph /  5.6 km/h 42 % 0.00 in /  0 mm
13:55 75.7 °F /  24.3 °C 51.6 °F /  10.9 °C 30.19 in /  1022.2 hPa WNW 2.3 mph /  3.7 km/h 2.3 mph /  3.7 km/h 43 % 0.00 in /  0 mm
14:00 75.6 °F /  24.2 °C 50.9 °F /  10.5 °C 30.19 in /  1022.2 hPa Calm     42 % 0.00 in /  0 mm
14:05 75.7 °F /  24.3 °C 51.0 °F /  10.6 °C 30.19 in /  1022.2 hPa WNW 3.5 mph /  5.6 km/h 3.5 mph /  5.6 km/h 42 % 0.00 in /  0 mm
14:10 75.9 °F /  24.4 °C 51.2 °F /  10.7 °C 30.19 in /  1022.2 hPa Calm     42 % 0.00 in /  0 mm
14:15 76.3 °F /  24.6 °C 52.2 °F /  11.2 °C 30.19 in /  1022.2 hPa NW 1.2 mph /  1.9 km/h 1.2 mph /  1.9 km/h 43 % 0.00 in /  0 mm
14:20 76.3 °F /  24.6 °C 50.9 °F /  10.5 °C 30.18 in /  1021.9 hPa NW 2.3 mph /  3.7 km/h 2.3 mph /  3.7 km/h 41 % 0.00 in /  0 mm
14:25 76.4 °F /  24.7 °C 51.0 °F /  10.6 °C 30.18 in /  1021.9 hPa NW 2.3 mph /  3.7 km/h 2.3 mph /  3.7 km/h 41 % 0.00 in /  0 mm
14:30 76.4 °F /  24.7 °C 52.2 °F /  11.2 °C 30.18 in /  1021.9 hPa NNW 2.3 mph /  3.7 km/h 2.3 mph /  3.7 km/h 43 % 0.00 in /  0 mm
14:35 76.2 °F /  24.6 °C 50.8 °F /  10.4 °C 30.18 in /  1021.9 hPa NNE 2.0 mph /  3.2 km/h 2.0 mph /  3.2 km/h 41 % 0.00 in /  0 mm
14:40 76.2 °F /  24.6 °C 50.8 °F /  10.4 °C 30.18 in /  1021.9 hPa Calm     41 % 0.00 in /  0 mm
14:45 76.3 °F /  24.6 °C 48.1 °F /  8.9 °C 30.18 in /  1021.9 hPa WNW 2.3 mph /  3.7 km/h 2.3 mph /  3.7 km/h 37 % 0.00 in /  0 mm
14:50 76.3 °F /  24.6 °C 48.1 °F /  8.9 °C 30.17 in /  1021.6 hPa NW 3.5 mph /  5.6 km/h 3.5 mph /  5.6 km/h 37 % 0.00 in /  0 mm
14:55 76.5 °F /  24.7 °C 48.3 °F /  9.1 °C 30.18 in /  1021.9 hPa NW 4.0 mph /  6.4 km/h 4.0 mph /  6.4 km/h 37 % 0.00 in /  0 mm
15:00 76.4 °F /  24.7 °C 47.5 °F /  8.6 °C 30.17 in /  1021.6 hPa NW 3.5 mph /  5.6 km/h 3.5 mph /  5.6 km/h 36 % 0.00 in /  0 mm
15:05 76.3 °F /  24.6 °C 47.4 °F /  8.6 °C 30.17 in /  1021.6 hPa NNW 3.5 mph /  5.6 km/h 3.5 mph /  5.6 km/h 36 % 0.00 in /  0 mm
15:10 76.3 °F /  24.6 °C 45.9 °F /  7.7 °C 30.17 in /  1021.6 hPa NW 4.0 mph /  6.4 km/h 4.0 mph /  6.4 km/h 34 % 0.00 in /  0 mm
15:15 76.3 °F /  24.6 °C 45.1 °F /  7.3 °C 30.17 in /  1021.6 hPa WNW 4.6 mph /  7.4 km/h 4.6 mph /  7.4 km/h 33 % 0.00 in /  0 mm
15:20 76.2 °F /  24.6 °C 45.8 °F /  7.7 °C 30.17 in /  1021.6 hPa NW 3.5 mph /  5.6 km/h 3.5 mph /  5.6 km/h 34 % 0.00 in /  0 mm
15:25 76.2 °F /  24.6 °C 44.2 °F /  6.8 °C 30.18 in /  1021.9 hPa NW 3.5 mph /  5.6 km/h 3.5 mph /  5.6 km/h 32 % 0.00 in /  0 mm
15:30 76.2 °F /  24.6 °C 45.8 °F /  7.7 °C 30.18 in /  1021.9 hPa WNW 3.5 mph /  5.6 km/h 3.5 mph /  5.6 km/h 34 % 0.00 in /  0 mm
15:35 76.1 °F /  24.5 °C 44.9 °F /  7.2 °C 30.18 in /  1021.9 hPa NW 3.5 mph /  5.6 km/h 3.5 mph /  5.6 km/h 33 % 0.00 in /  0 mm
15:40 76.1 °F /  24.5 °C 44.9 °F /  7.2 °C 30.18 in /  1021.9 hPa NW 3.5 mph /  5.6 km/h 3.5 mph /  5.6 km/h 33 % 0.00 in /  0 mm
15:45 76.2 °F /  24.6 °C 44.2 °F /  6.8 °C 30.18 in /  1021.9 hPa NW 4.6 mph /  7.4 km/h 4.6 mph /  7.4 km/h 32 % 0.00 in /  0 mm
15:50 76.1 °F /  24.5 °C 44.1 °F /  6.7 °C 30.18 in /  1021.9 hPa NW 2.3 mph /  3.7 km/h 2.3 mph /  3.7 km/h 32 % 0.00 in /  0 mm
15:55 75.9 °F /  24.4 °C 43.1 °F /  6.2 °C 30.18 in /  1021.9 hPa North 3.5 mph /  5.6 km/h 3.5 mph /  5.6 km/h 31 % 0.00 in /  0 mm
16:00 75.9 °F /  24.4 °C 42.2 °F /  5.7 °C 30.18 in /  1021.9 hPa NW 1.2 mph /  1.9 km/h 1.2 mph /  1.9 km/h 30 % 0.00 in /  0 mm
16:05 75.8 °F /  24.3 °C 43.8 °F /  6.6 °C 30.18 in /  1021.9 hPa NNW 2.0 mph /  3.2 km/h 2.0 mph /  3.2 km/h 32 % 0.00 in /  0 mm
16:10 75.6 °F /  24.2 °C 43.7 °F /  6.5 °C 30.18 in /  1021.9 hPa NW 3.0 mph /  4.8 km/h 3.0 mph /  4.8 km/h 32 % 0.00 in /  0 mm
16:15 75.4 °F /  24.1 °C 44.3 °F /  6.8 °C 30.18 in /  1021.9 hPa WNW 3.5 mph /  5.6 km/h 3.5 mph /  5.6 km/h 33 % 0.00 in /  0 mm
16:20 75.3 °F /  24.1 °C 44.2 °F /  6.8 °C 30.18 in /  1021.9 hPa NW 2.3 mph /  3.7 km/h 2.4 mph /  3.9 km/h 33 % 0.00 in /  0 mm
16:25 75.3 °F /  24.1 °C 45.0 °F /  7.2 °C 30.18 in /  1021.9 hPa NW 4.6 mph /  7.4 km/h 4.6 mph /  7.4 km/h 34 % 0.00 in /  0 mm
16:30 75.0 °F /  23.9 °C 45.5 °F /  7.5 °C 30.18 in /  1021.9 hPa North 2.3 mph /  3.7 km/h 2.3 mph /  3.7 km/h 35 % 0.00 in /  0 mm
16:35 74.9 °F /  23.8 °C 46.9 °F /  8.3 °C 30.18 in /  1021.9 hPa NW 1.2 mph /  1.9 km/h 1.2 mph /  1.9 km/h 37 % 0.00 in /  0 mm
16:40 74.6 °F /  23.7 °C 47.3 °F /  8.5 °C 30.18 in /  1021.9 hPa NW 1.2 mph /  1.9 km/h 1.2 mph /  1.9 km/h 38 % 0.00 in /  0 mm
16:45 74.4 °F /  23.6 °C 47.8 °F /  8.8 °C 30.18 in /  1021.9 hPa WNW 2.3 mph /  3.7 km/h 2.3 mph /  3.7 km/h 39 % 0.00 in /  0 mm
16:50 74.1 °F /  23.4 °C 48.2 °F /  9 °C 30.18 in /  1021.9 hPa WNW 2.3 mph /  3.7 km/h 2.3 mph /  3.7 km/h 40 % 0.00 in /  0 mm
16:55 73.8 °F /  23.2 °C 48.6 °F /  9.2 °C 30.18 in /  1021.9 hPa Calm     41 % 0.00 in /  0 mm
17:00 73.6 °F /  23.1 °C 48.4 °F /  9.1 °C 30.18 in /  1021.9 hPa Calm     41 % 0.00 in /  0 mm
17:05 73.3 °F /  22.9 °C 48.2 °F /  9 °C 30.18 in /  1021.9 hPa Calm     41 % 0.00 in /  0 mm
17:10 73.0 °F /  22.8 °C 47.9 °F /  8.8 °C 30.18 in /  1021.9 hPa Calm     41 % 0.00 in /  0 mm
17:15 72.5 °F /  22.5 °C 48.7 °F /  9.3 °C 30.18 in /  1021.9 hPa Calm     43 % 0.00 in /  0 mm
17:20 71.8 °F /  22.1 °C 48.7 °F /  9.3 °C 30.18 in /  1021.9 hPa Calm     44 % 0.00 in /  0 mm
17:25 71.1 °F /  21.7 °C 49.3 °F /  9.6 °C 30.18 in /  1021.9 hPa Calm     46 % 0.00 in /  0 mm
17:30 70.1 °F /  21.2 °C 48.9 °F /  9.4 °C 30.18 in /  1021.9 hPa Calm     47 % 0.00 in /  0 mm
17:35 69.3 °F /  20.7 °C 49.3 °F /  9.6 °C 30.18 in /  1021.9 hPa Calm     49 % 0.00 in /  0 mm
17:40 68.5 °F /  20.3 °C 49.7 °F /  9.8 °C 30.18 in /  1021.9 hPa Calm     51 % 0.00 in /  0 mm
17:45 67.7 °F /  19.8 °C 49.4 °F /  9.7 °C 30.18 in /  1021.9 hPa Calm     52 % 0.00 in /  0 mm
17:50 66.9 °F /  19.4 °C 49.2 °F /  9.6 °C 30.18 in /  1021.9 hPa Calm     53 % 0.00 in /  0 mm
17:55 66.1 °F /  18.9 °C 50.4 °F /  10.2 °C 30.19 in /  1022.2 hPa Calm     57 % 0.00 in /  0 mm
18:00 65.2 °F /  18.4 °C 49.6 °F /  9.8 °C 30.19 in /  1022.2 hPa Calm     57 % 0.00 in /  0 mm
18:05 64.9 °F /  18.3 °C 49.3 °F /  9.6 °C 30.19 in /  1022.2 hPa Calm     57 % 0.00 in /  0 mm
18:10 64.8 °F /  18.2 °C 49.2 °F /  9.6 °C 30.19 in /  1022.2 hPa Calm     57 % 0.00 in /  0 mm
18:15 64.5 °F /  18.1 °C 49.4 °F /  9.7 °C 30.19 in /  1022.2 hPa Calm     58 % 0.00 in /  0 mm
18:20 64.1 °F /  17.8 °C 49.0 °F /  9.4 °C 30.19 in /  1022.2 hPa Calm     58 % 0.00 in /  0 mm
18:26 63.5 °F /  17.5 °C 48.9 °F /  9.4 °C 30.19 in /  1022.2 hPa Calm     59 % 0.00 in /  0 mm
18:31 63.0 °F /  17.2 °C 48.9 °F /  9.4 °C 30.19 in /  1022.2 hPa Calm     60 % 0.00 in /  0 mm
18:36 62.5 °F /  16.9 °C 49.3 °F /  9.6 °C 30.20 in /  1022.6 hPa Calm     62 % 0.00 in /  0 mm
18:41 62.3 °F /  16.8 °C 49.1 °F /  9.5 °C 30.20 in /  1022.6 hPa Calm     62 % 0.00 in /  0 mm
18:46 62.1 °F /  16.7 °C 48.9 °F /  9.4 °C 30.20 in /  1022.6 hPa Calm     62 % 0.00 in /  0 mm
18:51 62.0 °F /  16.7 °C 49.3 °F /  9.6 °C 30.19 in /  1022.2 hPa Calm     63 % 0.00 in /  0 mm
18:56 62.0 °F /  16.7 °C 49.3 °F /  9.6 °C 30.20 in /  1022.6 hPa Calm     63 % 0.00 in /  0 mm
19:01 61.7 °F /  16.5 °C 49.0 °F /  9.4 °C 30.20 in /  1022.6 hPa Calm     63 % 0.00 in /  0 mm
19:06 61.4 °F /  16.3 °C 49.1 °F /  9.5 °C 30.20 in /  1022.6 hPa Calm     64 % 0.00 in /  0 mm
19:11 61.3 °F /  16.3 °C 49.0 °F /  9.4 °C 30.20 in /  1022.6 hPa Calm     64 % 0.00 in /  0 mm
19:16 61.2 °F /  16.2 °C 49.3 °F /  9.6 °C 30.20 in /  1022.6 hPa Calm     65 % 0.00 in /  0 mm
19:21 60.9 °F /  16.1 °C 49.1 °F /  9.5 °C 30.20 in /  1022.6 hPa Calm     65 % 0.00 in /  0 mm
19:26 60.4 °F /  15.8 °C 49.0 °F /  9.4 °C 30.20 in /  1022.6 hPa Calm     66 % 0.00 in /  0 mm
19:31 59.9 °F /  15.5 °C 49.3 °F /  9.6 °C 30.20 in /  1022.6 hPa Calm     68 % 0.00 in /  0 mm
19:36 59.4 °F /  15.2 °C 49.2 °F /  9.6 °C 30.20 in /  1022.6 hPa Calm     69 % 0.00 in /  0 mm
19:41 58.9 °F /  14.9 °C 49.1 °F /  9.5 °C 30.20 in /  1022.6 hPa Calm     70 % 0.00 in /  0 mm
19:46 58.6 °F /  14.8 °C 49.2 °F /  9.6 °C 30.21 in /  1022.9 hPa Calm     71 % 0.00 in /  0 mm
19:51 58.3 °F /  14.6 °C 49.3 °F /  9.6 °C 30.21 in /  1022.9 hPa Calm     72 % 0.00 in /  0 mm
19:56 58.4 °F /  14.7 °C 49.0 °F /  9.4 °C 30.21 in /  1022.9 hPa Calm     71 % 0.00 in /  0 mm
20:01 58.5 °F /  14.7 °C 49.1 °F /  9.5 °C 30.21 in /  1022.9 hPa Calm     71 % 0.00 in /  0 mm
20:04 58.3 °F /  14.6 °C 48.9 °F /  9.4 °C 30.21 in /  1022.9 hPa Calm     71 % 0.00 in /  0 mm
20:09 57.7 °F /  14.3 °C 48.7 °F /  9.3 °C 30.21 in /  1022.9 hPa Calm     72 % 0.00 in /  0 mm
20:15 57.0 °F /  13.9 °C 48.4 °F /  9.1 °C 30.21 in /  1022.9 hPa Calm     73 % 0.00 in /  0 mm
20:19 56.6 °F /  13.7 °C 48.4 °F /  9.1 °C 30.21 in /  1022.9 hPa Calm     74 % 0.00 in /  0 mm
20:25 56.4 °F /  13.6 °C 48.6 °F /  9.2 °C 30.22 in /  1023.2 hPa Calm     75 % 0.00 in /  0 mm
20:30 56.2 °F /  13.4 °C 48.4 °F /  9.1 °C 30.22 in /  1023.2 hPa Calm     75 % 0.00 in /  0 mm
20:35 56.5 °F /  13.6 °C 48.7 °F /  9.3 °C 30.22 in /  1023.2 hPa Calm     75 % 0.00 in /  0 mm
20:40 57.2 °F /  14 °C 48.6 °F /  9.2 °C 30.22 in /  1023.2 hPa Calm     73 % 0.00 in /  0 mm
20:45 57.6 °F /  14.2 °C 48.6 °F /  9.2 °C 30.22 in /  1023.2 hPa Calm     72 % 0.00 in /  0 mm
20:50 58.2 °F /  14.6 °C 48.8 °F /  9.3 °C 30.22 in /  1023.2 hPa Calm     71 % 0.00 in /  0 mm
20:55 58.8 °F /  14.9 °C 48.6 °F /  9.2 °C 30.22 in /  1023.2 hPa Calm     69 % 0.00 in /  0 mm
21:00 59.0 °F /  15 °C 48.4 °F /  9.1 °C 30.22 in /  1023.2 hPa Calm     68 % 0.00 in /  0 mm
21:05 59.1 °F /  15.1 °C 48.5 °F /  9.2 °C 30.22 in /  1023.2 hPa Calm     68 % 0.00 in /  0 mm
21:10 58.8 °F /  14.9 °C 48.3 °F /  9.1 °C 30.22 in /  1023.2 hPa Calm     68 % 0.00 in /  0 mm
21:15 58.2 °F /  14.6 °C 48.1 °F /  8.9 °C 30.22 in /  1023.2 hPa Calm     69 % 0.00 in /  0 mm
21:20 57.3 °F /  14.1 °C 48.0 °F /  8.9 °C 30.22 in /  1023.2 hPa West 1.2 mph /  1.9 km/h   71 % 0.00 in /  0 mm
21:25 56.6 °F /  13.7 °C 47.7 °F /  8.7 °C 30.22 in /  1023.2 hPa Calm     72 % 0.00 in /  0 mm
21:30 55.8 °F /  13.2 °C 47.6 °F /  8.7 °C 30.22 in /  1023.2 hPa Calm     74 % 0.00 in /  0 mm
21:35 54.8 °F /  12.7 °C 47.4 °F /  8.6 °C 30.22 in /  1023.2 hPa Calm     76 % 0.00 in /  0 mm
21:40 53.8 °F /  12.1 °C 47.1 °F /  8.4 °C 30.22 in /  1023.2 hPa Calm     78 % 0.00 in /  0 mm
21:45 53.2 °F /  11.8 °C 46.9 °F /  8.3 °C 30.22 in /  1023.2 hPa Calm     79 % 0.00 in /  0 mm
21:50 52.6 °F /  11.4 °C 46.6 °F /  8.1 °C 30.23 in /  1023.6 hPa Calm     80 % 0.00 in /  0 mm
21:55 52.1 °F /  11.2 °C 46.4 °F /  8 °C 30.23 in /  1023.6 hPa Calm     81 % 0.00 in /  0 mm
22:00 51.8 °F /  11 °C 46.8 °F /  8.2 °C 30.23 in /  1023.6 hPa Calm     83 % 0.00 in /  0 mm
22:05 51.7 °F /  10.9 °C 46.7 °F /  8.2 °C 30.23 in /  1023.6 hPa Calm     83 % 0.00 in /  0 mm
22:10 51.6 °F /  10.9 °C 46.6 °F /  8.1 °C 30.23 in /  1023.6 hPa Calm     83 % 0.00 in /  0 mm
22:15 51.4 °F /  10.8 °C 46.7 °F /  8.2 °C 30.23 in /  1023.6 hPa Calm     84 % 0.00 in /  0 mm
22:20 51.3 °F /  10.7 °C 46.6 °F /  8.1 °C 30.23 in /  1023.6 hPa Calm     84 % 0.00 in /  0 mm
22:25 51.0 °F /  10.6 °C 46.3 °F /  7.9 °C 30.23 in /  1023.6 hPa SE 1.2 mph /  1.9 km/h 1.2 mph /  1.9 km/h 84 % 0.00 in /  0 mm
22:30 50.7 °F /  10.4 °C 46.4 °F /  8 °C 30.23 in /  1023.6 hPa Calm     85 % 0.00 in /  0 mm
22:35 50.4 °F /  10.2 °C 46.1 °F /  7.8 °C 30.23 in /  1023.6 hPa Calm     85 % 0.00 in /  0 mm
22:40 50.4 °F /  10.2 °C 46.4 °F /  8 °C 30.23 in /  1023.6 hPa Calm     86 % 0.00 in /  0 mm
22:45 50.3 °F /  10.2 °C 46.3 °F /  7.9 °C 30.23 in /  1023.6 hPa Calm     86 % 0.00 in /  0 mm
22:50 50.3 °F /  10.2 °C 46.3 °F /  7.9 °C 30.23 in /  1023.6 hPa Calm     86 % 0.00 in /  0 mm
22:55 50.4 °F /  10.2 °C 46.4 °F /  8 °C 30.23 in /  1023.6 hPa Calm     86 % 0.00 in /  0 mm
23:00 50.7 °F /  10.4 °C 46.7 °F /  8.2 °C 30.23 in /  1023.6 hPa Calm     86 % 0.00 in /  0 mm
23:05 51.0 °F /  10.6 °C 47.0 °F /  8.3 °C 30.23 in /  1023.6 hPa Calm     86 % 0.00 in /  0 mm
23:10 51.3 °F /  10.7 °C 46.9 °F /  8.3 °C 30.23 in /  1023.6 hPa Calm     85 % 0.00 in /  0 mm
23:15 51.5 °F /  10.8 °C 46.8 °F /  8.2 °C 30.23 in /  1023.6 hPa Calm     84 % 0.00 in /  0 mm
23:20 51.4 °F /  10.8 °C 46.7 °F /  8.2 °C 30.23 in /  1023.6 hPa Calm     84 % 0.00 in /  0 mm
23:25 51.2 °F /  10.7 °C 46.5 °F /  8.1 °C 30.23 in /  1023.6 hPa Calm     84 % 0.00 in /  0 mm
23:30 51.5 °F /  10.8 °C 46.8 °F /  8.2 °C 30.23 in /  1023.6 hPa Calm     84 % 0.00 in /  0 mm
23:35 51.5 °F /  10.8 °C 46.2 °F /  7.9 °C 30.23 in /  1023.6 hPa Calm     82 % 0.00 in /  0 mm
23:40 51.0 °F /  10.6 °C 45.7 °F /  7.6 °C 30.23 in /  1023.6 hPa Calm     82 % 0.00 in /  0 mm
23:45 50.8 °F /  10.4 °C 45.8 °F /  7.7 °C 30.23 in /  1023.6 hPa Calm     83 % 0.00 in /  0 mm
23:50 50.8 °F /  10.4 °C 45.8 °F /  7.7 °C 30.23 in /  1023.6 hPa Calm     83 % 0.00 in /  0 mm
23:55 50.8 °F /  10.4 °C 46.1 °F /  7.8 °C 30.23 in /  1023.6 hPa Calm     84 % 0.00 in /  0 mm
Park Place, Exeter, Tulare County, California, USA
Compliments of Weather Underground - 2.75 mb